sensor_id;sensor_type;location;lat;lon;timestamp;temperature;humidity
9776;DHT22;4927;52.472;13.108;2023-11-18T00:01:12;4.50;99.90
9776;DHT22;4927;52.472;13.108;2023-11-18T00:02:53;4.50;99.90
9776;DHT22;4927;52.472;13.108;2023-11-18T00:04:46;4.50;99.90
9776;DHT22;4927;52.472;13.108;2023-11-18T00:05:48;4.50;99.90
9776;DHT22;4927;52.472;13.108;2023-11-18T00:06:50;4.50;99.90
9776;DHT22;4927;52.472;13.108;2023-11-18T00:07:52;4.50;99.90
9776;DHT22;4927;52.472;13.108;2023-11-18T00:08:54;4.50;99.90
9776;DHT22;4927;52.472;13.108;2023-11-18T00:09:56;4.50;99.90
9776;DHT22;4927;52.472;13.108;2023-11-18T00:10:58;4.50;99.90
9776;DHT22;4927;52.472;13.108;2023-11-18T00:12:00;4.50;99.90
9776;DHT22;4927;52.472;13.108;2023-11-18T00:13:02;4.50;99.90
9776;DHT22;4927;52.472;13.108;2023-11-18T00:14:05;4.50;99.90
9776;DHT22;4927;52.472;13.108;2023-11-18T00:15:08;4.50;99.90
9776;DHT22;4927;52.472;13.108;2023-11-18T00:16:11;4.50;99.90
9776;DHT22;4927;52.472;13.108;2023-11-18T00:17:14;4.50;99.90
9776;DHT22;4927;52.472;13.108;2023-11-18T00:18:17;4.50;99.90
9776;DHT22;4927;52.472;13.108;2023-11-18T00:19:19;4.50;99.90
9776;DHT22;4927;52.472;13.108;2023-11-18T00:20:21;4.50;99.90
9776;DHT22;4927;52.472;13.108;2023-11-18T00:21:24;4.50;99.90
9776;DHT22;4927;52.472;13.108;2023-11-18T00:22:25;4.50;99.90
9776;DHT22;4927;52.472;13.108;2023-11-18T00:23:27;4.50;99.90
9776;DHT22;4927;52.472;13.108;2023-11-18T00:24:30;4.40;99.90
9776;DHT22;4927;52.472;13.108;2023-11-18T00:25:32;4.40;99.90
9776;DHT22;4927;52.472;13.108;2023-11-18T00:26:34;4.40;99.90
9776;DHT22;4927;52.472;13.108;2023-11-18T00:27:36;4.40;99.90
9776;DHT22;4927;52.472;13.108;2023-11-18T00:28:38;4.40;99.90
9776;DHT22;4927;52.472;13.108;2023-11-18T00:29:41;4.40;99.90
9776;DHT22;4927;52.472;13.108;2023-11-18T00:30:43;4.40;99.90
9776;DHT22;4927;52.472;13.108;2023-11-18T00:31:45;4.40;99.90
9776;DHT22;4927;52.472;13.108;2023-11-18T00:32:47;4.40;99.90
9776;DHT22;4927;52.472;13.108;2023-11-18T00:33:49;4.40;99.90
9776;DHT22;4927;52.472;13.108;2023-11-18T00:34:51;4.40;99.90
9776;DHT22;4927;52.472;13.108;2023-11-18T00:35:53;4.40;99.90
9776;DHT22;4927;52.472;13.108;2023-11-18T00:36:56;4.30;99.90
9776;DHT22;4927;52.472;13.108;2023-11-18T00:37:58;4.30;99.90
9776;DHT22;4927;52.472;13.108;2023-11-18T00:39:00;4.30;99.90
9776;DHT22;4927;52.472;13.108;2023-11-18T00:40:03;4.30;99.90
9776;DHT22;4927;52.472;13.108;2023-11-18T00:41:07;4.40;99.90
9776;DHT22;4927;52.472;13.108;2023-11-18T00:42:09;4.40;99.90
9776;DHT22;4927;52.472;13.108;2023-11-18T00:43:12;4.40;99.90
9776;DHT22;4927;52.472;13.108;2023-11-18T00:44:14;4.40;99.90
9776;DHT22;4927;52.472;13.108;2023-11-18T00:45:16;4.40;99.90
9776;DHT22;4927;52.472;13.108;2023-11-18T00:46:18;4.40;99.90
9776;DHT22;4927;52.472;13.108;2023-11-18T00:47:20;4.40;99.90
9776;DHT22;4927;52.472;13.108;2023-11-18T00:48:22;4.40;99.90
9776;DHT22;4927;52.472;13.108;2023-11-18T00:49:24;4.40;99.90
9776;DHT22;4927;52.472;13.108;2023-11-18T00:50:26;4.40;99.90
9776;DHT22;4927;52.472;13.108;2023-11-18T00:51:28;4.40;99.90
9776;DHT22;4927;52.472;13.108;2023-11-18T00:52:30;4.40;99.90
9776;DHT22;4927;52.472;13.108;2023-11-18T00:53:32;4.50;99.90
9776;DHT22;4927;52.472;13.108;2023-11-18T00:54:34;4.50;99.90
9776;DHT22;4927;52.472;13.108;2023-11-18T00:55:36;4.50;99.90
9776;DHT22;4927;52.472;13.108;2023-11-18T00:56:39;4.50;99.90
9776;DHT22;4927;52.472;13.108;2023-11-18T00:57:41;4.50;99.90
9776;DHT22;4927;52.472;13.108;2023-11-18T00:58:43;4.50;99.90
9776;DHT22;4927;52.472;13.108;2023-11-18T00:59:45;4.50;99.90
9776;DHT22;4927;52.472;13.108;2023-11-18T01:00:47;4.50;99.90
9776;DHT22;4927;52.472;13.108;2023-11-18T01:01:49;4.50;99.90
9776;DHT22;4927;52.472;13.108;2023-11-18T01:02:51;4.50;99.90
9776;DHT22;4927;52.472;13.108;2023-11-18T01:03:53;4.50;99.90
9776;DHT22;4927;52.472;13.108;2023-11-18T01:04:55;4.50;99.90
9776;DHT22;4927;52.472;13.108;2023-11-18T01:05:57;4.50;99.90
9776;DHT22;4927;52.472;13.108;2023-11-18T01:06:59;4.50;99.90
9776;DHT22;4927;52.472;13.108;2023-11-18T01:08:01;4.50;99.90
9776;DHT22;4927;52.472;13.108;2023-11-18T01:09:04;4.60;99.90
9776;DHT22;4927;52.472;13.108;2023-11-18T01:10:07;4.50;99.90
9776;DHT22;4927;52.472;13.108;2023-11-18T01:11:10;4.60;99.90
9776;DHT22;4927;52.472;13.108;2023-11-18T01:12:12;4.60;99.90
9776;DHT22;4927;52.472;13.108;2023-11-18T01:13:14;4.50;99.90
9776;DHT22;4927;52.472;13.108;2023-11-18T01:14:17;4.50;99.90
9776;DHT22;4927;52.472;13.108;2023-11-18T01:15:19;4.50;99.90
9776;DHT22;4927;52.472;13.108;2023-11-18T01:16:21;4.50;99.90
9776;DHT22;4927;52.472;13.108;2023-11-18T01:17:23;4.50;99.90
9776;DHT22;4927;52.472;13.108;2023-11-18T01:18:26;4.50;99.90
9776;DHT22;4927;52.472;13.108;2023-11-18T01:19:28;4.50;99.90
9776;DHT22;4927;52.472;13.108;2023-11-18T01:20:30;4.50;99.90
9776;DHT22;4927;52.472;13.108;2023-11-18T01:21:32;4.50;99.90
9776;DHT22;4927;52.472;13.108;2023-11-18T01:22:35;4.50;99.90
9776;DHT22;4927;52.472;13.108;2023-11-18T01:23:37;4.50;99.90
9776;DHT22;4927;52.472;13.108;2023-11-18T01:24:40;4.50;99.90
9776;DHT22;4927;52.472;13.108;2023-11-18T01:25:43;4.50;99.90
9776;DHT22;4927;52.472;13.108;2023-11-18T01:26:45;4.50;99.90
9776;DHT22;4927;52.472;13.108;2023-11-18T01:27:48;4.50;99.90
9776;DHT22;4927;52.472;13.108;2023-11-18T01:28:51;4.50;99.90
9776;DHT22;4927;52.472;13.108;2023-11-18T01:29:54;4.50;99.90
9776;DHT22;4927;52.472;13.108;2023-11-18T01:30:56;4.50;99.90
9776;DHT22;4927;52.472;13.108;2023-11-18T01:31:59;4.50;99.90
9776;DHT22;4927;52.472;13.108;2023-11-18T01:33:01;4.50;99.90
9776;DHT22;4927;52.472;13.108;2023-11-18T01:34:03;4.50;99.90
9776;DHT22;4927;52.472;13.108;2023-11-18T01:35:07;4.50;99.90
9776;DHT22;4927;52.472;13.108;2023-11-18T01:36:10;4.50;99.90
9776;DHT22;4927;52.472;13.108;2023-11-18T01:37:12;4.60;99.90
9776;DHT22;4927;52.472;13.108;2023-11-18T01:38:14;4.60;99.90
9776;DHT22;4927;52.472;13.108;2023-11-18T01:39:17;4.60;99.90
9776;DHT22;4927;52.472;13.108;2023-11-18T01:40:20;4.60;99.90
9776;DHT22;4927;52.472;13.108;2023-11-18T01:41:22;4.50;99.90
9776;DHT22;4927;52.472;13.108;2023-11-18T01:42:24;4.60;99.90
9776;DHT22;4927;52.472;13.108;2023-11-18T01:43:27;4.50;99.90
9776;DHT22;4927;52.472;13.108;2023-11-18T01:44:31;4.50;99.90
9776;DHT22;4927;52.472;13.108;2023-11-18T01:45:35;4.50;99.90
9776;DHT22;4927;52.472;13.108;2023-11-18T01:46:37;4.50;99.90
9776;DHT22;4927;52.472;13.108;2023-11-18T01:47:40;4.50;99.90
9776;DHT22;4927;52.472;13.108;2023-11-18T01:48:43;4.50;99.90
9776;DHT22;4927;52.472;13.108;2023-11-18T01:49:47;4.50;99.90
9776;DHT22;4927;52.472;13.108;2023-11-18T01:50:51;4.50;99.90
9776;DHT22;4927;52.472;13.108;2023-11-18T01:51:53;4.50;99.90
9776;DHT22;4927;52.472;13.108;2023-11-18T01:52:56;4.60;99.90
9776;DHT22;4927;52.472;13.108;2023-11-18T01:53:59;4.60;99.90
9776;DHT22;4927;52.472;13.108;2023-11-18T01:55:01;4.60;99.90
9776;DHT22;4927;52.472;13.108;2023-11-18T01:56:06;4.60;99.90
9776;DHT22;4927;52.472;13.108;2023-11-18T01:57:10;4.60;99.90
9776;DHT22;4927;52.472;13.108;2023-11-18T01:58:13;4.60;99.90
9776;DHT22;4927;52.472;13.108;2023-11-18T01:59:16;4.60;99.90
9776;DHT22;4927;52.472;13.108;2023-11-18T02:00:20;4.60;99.90
9776;DHT22;4927;52.472;13.108;2023-11-18T02:01:23;4.60;99.90
9776;DHT22;4927;52.472;13.108;2023-11-18T02:02:26;4.60;99.90
9776;DHT22;4927;52.472;13.108;2023-11-18T02:03:29;4.60;99.90
9776;DHT22;4927;52.472;13.108;2023-11-18T02:04:32;4.50;99.90
9776;DHT22;4927;52.472;13.108;2023-11-18T02:05:34;4.60;99.90
9776;DHT22;4927;52.472;13.108;2023-11-18T02:06:37;4.60;99.90
9776;DHT22;4927;52.472;13.108;2023-11-18T02:07:39;4.50;99.90
9776;DHT22;4927;52.472;13.108;2023-11-18T02:08:42;4.60;99.90
9776;DHT22;4927;52.472;13.108;2023-11-18T02:09:44;4.50;99.90
9776;DHT22;4927;52.472;13.108;2023-11-18T02:10:48;4.60;99.90
9776;DHT22;4927;52.472;13.108;2023-11-18T02:11:57;4.50;99.90
9776;DHT22;4927;52.472;13.108;2023-11-18T02:13:04;4.50;99.90
9776;DHT22;4927;52.472;13.108;2023-11-18T02:14:05;4.60;99.90
9776;DHT22;4927;52.472;13.108;2023-11-18T02:15:07;4.60;99.90
9776;DHT22;4927;52.472;13.108;2023-11-18T02:16:10;4.60;99.90
9776;DHT22;4927;52.472;13.108;2023-11-18T02:17:14;4.60;99.90
9776;DHT22;4927;52.472;13.108;2023-11-18T02:18:14;4.50;99.90
9776;DHT22;4927;52.472;13.108;2023-11-18T02:19:20;4.60;99.90
9776;DHT22;4927;52.472;13.108;2023-11-18T02:20:21;4.60;99.90
9776;DHT22;4927;52.472;13.108;2023-11-18T02:21:23;4.60;99.90
9776;DHT22;4927;52.472;13.108;2023-11-18T02:22:25;4.60;99.90
9776;DHT22;4927;52.472;13.108;2023-11-18T02:23:28;4.60;99.90
9776;DHT22;4927;52.472;13.108;2023-11-18T02:24:30;4.60;99.90
9776;DHT22;4927;52.472;13.108;2023-11-18T02:25:33;4.60;99.90
9776;DHT22;4927;52.472;13.108;2023-11-18T02:26:35;4.60;99.90
9776;DHT22;4927;52.472;13.108;2023-11-18T02:27:38;4.60;99.90
9776;DHT22;4927;52.472;13.108;2023-11-18T02:28:41;4.60;99.90
9776;DHT22;4927;52.472;13.108;2023-11-18T02:29:43;4.60;99.90
9776;DHT22;4927;52.472;13.108;2023-11-18T02:30:45;4.60;99.90
9776;DHT22;4927;52.472;13.108;2023-11-18T02:31:47;4.60;99.90
9776;DHT22;4927;52.472;13.108;2023-11-18T02:32:56;4.60;99.90
9776;DHT22;4927;52.472;13.108;2023-11-18T02:34:02;4.60;99.90
9776;DHT22;4927;52.472;13.108;2023-11-18T02:35:20;4.60;99.90
9776;DHT22;4927;52.472;13.108;2023-11-18T02:36:29;4.60;99.90
9776;DHT22;4927;52.472;13.108;2023-11-18T02:37:30;4.60;99.90
9776;DHT22;4927;52.472;13.108;2023-11-18T02:38:33;4.60;99.90
9776;DHT22;4927;52.472;13.108;2023-11-18T02:39:39;4.60;99.90
9776;DHT22;4927;52.472;13.108;2023-11-18T02:40:40;4.60;99.90
9776;DHT22;4927;52.472;13.108;2023-11-18T02:41:43;4.60;99.90
9776;DHT22;4927;52.472;13.108;2023-11-18T02:42:45;4.60;99.90
9776;DHT22;4927;52.472;13.108;2023-11-18T02:43:47;4.50;99.90
9776;DHT22;4927;52.472;13.108;2023-11-18T02:44:49;4.50;99.90
9776;DHT22;4927;52.472;13.108;2023-11-18T02:45:51;4.50;99.90
9776;DHT22;4927;52.472;13.108;2023-11-18T02:46:54;4.60;99.90
9776;DHT22;4927;52.472;13.108;2023-11-18T02:47:57;4.60;99.90
9776;DHT22;4927;52.472;13.108;2023-11-18T02:48:59;4.50;99.90
9776;DHT22;4927;52.472;13.108;2023-11-18T02:50:00;4.50;99.90
9776;DHT22;4927;52.472;13.108;2023-11-18T02:51:04;4.60;99.90
9776;DHT22;4927;52.472;13.108;2023-11-18T02:52:07;4.50;99.90
9776;DHT22;4927;52.472;13.108;2023-11-18T02:53:09;4.50;99.90
9776;DHT22;4927;52.472;13.108;2023-11-18T02:54:11;4.60;99.90
9776;DHT22;4927;52.472;13.108;2023-11-18T02:55:13;4.60;99.90
9776;DHT22;4927;52.472;13.108;2023-11-18T02:56:15;4.50;99.90
9776;DHT22;4927;52.472;13.108;2023-11-18T02:57:17;4.60;99.90
9776;DHT22;4927;52.472;13.108;2023-11-18T02:58:20;4.50;99.90
9776;DHT22;4927;52.472;13.108;2023-11-18T02:59:21;4.50;99.90
9776;DHT22;4927;52.472;13.108;2023-11-18T03:00:24;4.50;99.90
9776;DHT22;4927;52.472;13.108;2023-11-18T03:01:26;4.50;99.90
9776;DHT22;4927;52.472;13.108;2023-11-18T03:02:29;4.50;99.90
9776;DHT22;4927;52.472;13.108;2023-11-18T03:03:32;4.40;99.90
9776;DHT22;4927;52.472;13.108;2023-11-18T03:04:35;4.40;99.90
9776;DHT22;4927;52.472;13.108;2023-11-18T03:05:37;4.40;99.90
9776;DHT22;4927;52.472;13.108;2023-11-18T03:06:39;4.40;99.90
9776;DHT22;4927;52.472;13.108;2023-11-18T03:07:41;4.30;99.90
9776;DHT22;4927;52.472;13.108;2023-11-18T03:08:43;4.30;99.90
9776;DHT22;4927;52.472;13.108;2023-11-18T03:09:45;4.30;99.90
9776;DHT22;4927;52.472;13.108;2023-11-18T03:10:47;4.30;99.90
9776;DHT22;4927;52.472;13.108;2023-11-18T03:11:49;4.20;99.90
9776;DHT22;4927;52.472;13.108;2023-11-18T03:12:52;4.20;99.90
9776;DHT22;4927;52.472;13.108;2023-11-18T03:13:54;4.20;99.90
9776;DHT22;4927;52.472;13.108;2023-11-18T03:14:56;4.10;99.90
9776;DHT22;4927;52.472;13.108;2023-11-18T03:15:58;4.10;99.90
9776;DHT22;4927;52.472;13.108;2023-11-18T03:17:01;4.10;99.90
9776;DHT22;4927;52.472;13.108;2023-11-18T03:18:03;4.00;99.90
9776;DHT22;4927;52.472;13.108;2023-11-18T03:19:06;4.00;99.90
9776;DHT22;4927;52.472;13.108;2023-11-18T03:20:10;4.00;99.90
9776;DHT22;4927;52.472;13.108;2023-11-18T03:21:13;4.00;99.90
9776;DHT22;4927;52.472;13.108;2023-11-18T03:22:16;4.00;99.90
9776;DHT22;4927;52.472;13.108;2023-11-18T03:23:18;3.90;99.90
9776;DHT22;4927;52.472;13.108;2023-11-18T03:24:20;3.90;99.90
9776;DHT22;4927;52.472;13.108;2023-11-18T03:25:22;3.90;99.90
9776;DHT22;4927;52.472;13.108;2023-11-18T03:26:24;3.90;99.90
9776;DHT22;4927;52.472;13.108;2023-11-18T03:27:26;3.90;99.90
9776;DHT22;4927;52.472;13.108;2023-11-18T03:28:28;3.90;99.90
9776;DHT22;4927;52.472;13.108;2023-11-18T03:29:30;3.90;99.90
9776;DHT22;4927;52.472;13.108;2023-11-18T03:30:32;3.90;99.90
9776;DHT22;4927;52.472;13.108;2023-11-18T03:31:34;3.90;99.90
9776;DHT22;4927;52.472;13.108;2023-11-18T03:32:37;3.90;99.90
9776;DHT22;4927;52.472;13.108;2023-11-18T03:33:38;3.90;99.90
9776;DHT22;4927;52.472;13.108;2023-11-18T03:34:40;3.90;99.90
9776;DHT22;4927;52.472;13.108;2023-11-18T03:35:43;3.90;99.90
9776;DHT22;4927;52.472;13.108;2023-11-18T03:36:46;3.90;99.90
9776;DHT22;4927;52.472;13.108;2023-11-18T03:37:47;3.90;99.90
9776;DHT22;4927;52.472;13.108;2023-11-18T03:38:49;3.90;99.90
9776;DHT22;4927;52.472;13.108;2023-11-18T03:39:52;3.90;99.90
9776;DHT22;4927;52.472;13.108;2023-11-18T03:40:53;3.90;99.90
9776;DHT22;4927;52.472;13.108;2023-11-18T03:41:55;3.90;99.90
9776;DHT22;4927;52.472;13.108;2023-11-18T03:42:57;3.90;99.90
9776;DHT22;4927;52.472;13.108;2023-11-18T03:43:59;3.90;99.90
9776;DHT22;4927;52.472;13.108;2023-11-18T03:45:01;3.90;99.90
9776;DHT22;4927;52.472;13.108;2023-11-18T03:46:04;4.00;99.90
9776;DHT22;4927;52.472;13.108;2023-11-18T03:47:07;4.00;99.90
9776;DHT22;4927;52.472;13.108;2023-11-18T03:48:09;4.00;99.90
9776;DHT22;4927;52.472;13.108;2023-11-18T03:49:11;4.00;99.90
9776;DHT22;4927;52.472;13.108;2023-11-18T03:50:13;4.00;99.90
9776;DHT22;4927;52.472;13.108;2023-11-18T03:51:15;3.90;99.90
9776;DHT22;4927;52.472;13.108;2023-11-18T03:52:18;4.00;99.90
9776;DHT22;4927;52.472;13.108;2023-11-18T03:53:21;4.00;99.90
9776;DHT22;4927;52.472;13.108;2023-11-18T03:54:23;4.00;99.90
9776;DHT22;4927;52.472;13.108;2023-11-18T03:55:25;4.00;99.90
9776;DHT22;4927;52.472;13.108;2023-11-18T03:56:28;4.00;99.90
9776;DHT22;4927;52.472;13.108;2023-11-18T03:57:31;4.00;99.90
9776;DHT22;4927;52.472;13.108;2023-11-18T03:58:34;4.00;99.90
9776;DHT22;4927;52.472;13.108;2023-11-18T03:59:36;4.00;99.90
9776;DHT22;4927;52.472;13.108;2023-11-18T04:00:38;4.00;99.90
9776;DHT22;4927;52.472;13.108;2023-11-18T04:01:40;4.00;99.90
9776;DHT22;4927;52.472;13.108;2023-11-18T04:02:42;4.00;99.90
9776;DHT22;4927;52.472;13.108;2023-11-18T04:03:44;3.90;99.90
9776;DHT22;4927;52.472;13.108;2023-11-18T04:04:47;4.00;99.90
9776;DHT22;4927;52.472;13.108;2023-11-18T04:05:50;3.90;99.90
9776;DHT22;4927;52.472;13.108;2023-11-18T04:06:52;3.90;99.90
9776;DHT22;4927;52.472;13.108;2023-11-18T04:07:53;3.90;99.90
9776;DHT22;4927;52.472;13.108;2023-11-18T04:08:55;3.90;99.90
9776;DHT22;4927;52.472;13.108;2023-11-18T04:09:57;3.90;99.90
9776;DHT22;4927;52.472;13.108;2023-11-18T04:10:59;3.90;99.90
9776;DHT22;4927;52.472;13.108;2023-11-18T04:12:01;3.90;99.90
9776;DHT22;4927;52.472;13.108;2023-11-18T04:13:03;3.90;99.90
9776;DHT22;4927;52.472;13.108;2023-11-18T04:14:06;3.90;99.90
9776;DHT22;4927;52.472;13.108;2023-11-18T04:15:08;4.00;99.90
9776;DHT22;4927;52.472;13.108;2023-11-18T04:16:14;4.00;99.90
9776;DHT22;4927;52.472;13.108;2023-11-18T04:17:17;4.00;99.90
9776;DHT22;4927;52.472;13.108;2023-11-18T04:18:19;4.00;99.90
9776;DHT22;4927;52.472;13.108;2023-11-18T04:19:22;4.00;99.90
9776;DHT22;4927;52.472;13.108;2023-11-18T04:20:24;4.00;99.90
9776;DHT22;4927;52.472;13.108;2023-11-18T04:21:26;4.00;99.90
9776;DHT22;4927;52.472;13.108;2023-11-18T04:22:28;4.00;99.90
9776;DHT22;4927;52.472;13.108;2023-11-18T04:23:30;4.00;99.90
9776;DHT22;4927;52.472;13.108;2023-11-18T04:24:32;4.00;99.90
9776;DHT22;4927;52.472;13.108;2023-11-18T04:25:34;4.00;99.90
9776;DHT22;4927;52.472;13.108;2023-11-18T04:26:36;4.00;99.90
9776;DHT22;4927;52.472;13.108;2023-11-18T04:27:38;4.00;99.90
9776;DHT22;4927;52.472;13.108;2023-11-18T04:28:40;4.00;99.90
9776;DHT22;4927;52.472;13.108;2023-11-18T04:29:42;4.10;99.90
9776;DHT22;4927;52.472;13.108;2023-11-18T04:30:44;4.10;99.90
9776;DHT22;4927;52.472;13.108;2023-11-18T04:31:46;4.10;99.90
9776;DHT22;4927;52.472;13.108;2023-11-18T04:32:48;4.10;99.90
9776;DHT22;4927;52.472;13.108;2023-11-18T04:33:50;4.10;99.90
9776;DHT22;4927;52.472;13.108;2023-11-18T04:34:52;4.10;99.90
9776;DHT22;4927;52.472;13.108;2023-11-18T04:35:55;4.10;99.90
9776;DHT22;4927;52.472;13.108;2023-11-18T04:36:57;4.10;99.90
9776;DHT22;4927;52.472;13.108;2023-11-18T04:37:59;4.10;99.90
9776;DHT22;4927;52.472;13.108;2023-11-18T04:39:00;4.10;99.90
9776;DHT22;4927;52.472;13.108;2023-11-18T04:40:03;4.10;99.90
9776;DHT22;4927;52.472;13.108;2023-11-18T04:41:06;4.10;99.90
9776;DHT22;4927;52.472;13.108;2023-11-18T04:42:08;4.10;99.90
9776;DHT22;4927;52.472;13.108;2023-11-18T04:43:10;4.10;99.90
9776;DHT22;4927;52.472;13.108;2023-11-18T04:44:12;4.10;99.90
9776;DHT22;4927;52.472;13.108;2023-11-18T04:45:14;4.00;99.90
9776;DHT22;4927;52.472;13.108;2023-11-18T04:46:16;4.10;99.90
9776;DHT22;4927;52.472;13.108;2023-11-18T04:47:18;4.10;99.90
9776;DHT22;4927;52.472;13.108;2023-11-18T04:48:20;4.10;99.90
9776;DHT22;4927;52.472;13.108;2023-11-18T04:49:22;4.10;99.90
9776;DHT22;4927;52.472;13.108;2023-11-18T04:50:24;4.10;99.90
9776;DHT22;4927;52.472;13.108;2023-11-18T04:51:26;4.10;99.90
9776;DHT22;4927;52.472;13.108;2023-11-18T04:52:28;4.10;99.90
9776;DHT22;4927;52.472;13.108;2023-11-18T04:53:31;4.10;99.90
9776;DHT22;4927;52.472;13.108;2023-11-18T04:54:33;4.10;99.90
9776;DHT22;4927;52.472;13.108;2023-11-18T04:55:35;4.10;99.90
9776;DHT22;4927;52.472;13.108;2023-11-18T04:56:37;4.10;99.90
9776;DHT22;4927;52.472;13.108;2023-11-18T04:57:39;4.10;99.90
9776;DHT22;4927;52.472;13.108;2023-11-18T04:58:42;4.10;99.90
9776;DHT22;4927;52.472;13.108;2023-11-18T04:59:43;4.10;99.90
9776;DHT22;4927;52.472;13.108;2023-11-18T05:00:45;4.10;99.90
9776;DHT22;4927;52.472;13.108;2023-11-18T05:01:47;4.20;99.90
9776;DHT22;4927;52.472;13.108;2023-11-18T05:02:50;4.20;99.90
9776;DHT22;4927;52.472;13.108;2023-11-18T05:03:52;4.20;99.90
9776;DHT22;4927;52.472;13.108;2023-11-18T05:04:54;4.20;99.90
9776;DHT22;4927;52.472;13.108;2023-11-18T05:05:56;4.10;99.90
9776;DHT22;4927;52.472;13.108;2023-11-18T05:06:58;4.20;99.90
9776;DHT22;4927;52.472;13.108;2023-11-18T05:08:00;4.20;99.90
9776;DHT22;4927;52.472;13.108;2023-11-18T05:09:02;4.20;99.90
9776;DHT22;4927;52.472;13.108;2023-11-18T05:10:06;4.20;99.90
9776;DHT22;4927;52.472;13.108;2023-11-18T05:11:09;4.20;99.90
9776;DHT22;4927;52.472;13.108;2023-11-18T05:12:11;4.20;99.90
9776;DHT22;4927;52.472;13.108;2023-11-18T05:13:13;4.20;99.90
9776;DHT22;4927;52.472;13.108;2023-11-18T05:14:15;4.20;99.90
9776;DHT22;4927;52.472;13.108;2023-11-18T05:15:17;4.20;99.90
9776;DHT22;4927;52.472;13.108;2023-11-18T05:16:19;4.20;99.90
9776;DHT22;4927;52.472;13.108;2023-11-18T05:17:22;4.20;99.90
9776;DHT22;4927;52.472;13.108;2023-11-18T05:18:23;4.20;99.90
9776;DHT22;4927;52.472;13.108;2023-11-18T05:19:26;4.20;99.90
9776;DHT22;4927;52.472;13.108;2023-11-18T05:20:28;4.20;99.90
9776;DHT22;4927;52.472;13.108;2023-11-18T05:21:30;4.20;99.90
9776;DHT22;4927;52.472;13.108;2023-11-18T05:22:32;4.20;99.90
9776;DHT22;4927;52.472;13.108;2023-11-18T05:23:34;4.20;99.90
9776;DHT22;4927;52.472;13.108;2023-11-18T05:24:37;4.20;99.90
9776;DHT22;4927;52.472;13.108;2023-11-18T05:25:40;4.20;99.90
9776;DHT22;4927;52.472;13.108;2023-11-18T05:26:41;4.20;99.90
9776;DHT22;4927;52.472;13.108;2023-11-18T05:27:44;4.30;99.90
9776;DHT22;4927;52.472;13.108;2023-11-18T05:28:47;4.30;99.90
9776;DHT22;4927;52.472;13.108;2023-11-18T05:29:50;4.30;99.90
9776;DHT22;4927;52.472;13.108;2023-11-18T05:30:52;4.20;99.90
9776;DHT22;4927;52.472;13.108;2023-11-18T05:31:54;4.30;99.90
9776;DHT22;4927;52.472;13.108;2023-11-18T05:32:57;4.20;99.90
9776;DHT22;4927;52.472;13.108;2023-11-18T05:33:59;4.30;99.90
9776;DHT22;4927;52.472;13.108;2023-11-18T05:35:01;4.20;99.90
9776;DHT22;4927;52.472;13.108;2023-11-18T05:36:05;4.30;99.90
9776;DHT22;4927;52.472;13.108;2023-11-18T05:37:07;4.30;99.90
9776;DHT22;4927;52.472;13.108;2023-11-18T05:38:09;4.30;99.90
9776;DHT22;4927;52.472;13.108;2023-11-18T05:39:11;4.30;99.90
9776;DHT22;4927;52.472;13.108;2023-11-18T05:40:13;4.30;99.90
9776;DHT22;4927;52.472;13.108;2023-11-18T05:41:15;4.30;99.90
9776;DHT22;4927;52.472;13.108;2023-11-18T05:42:17;4.30;99.90
9776;DHT22;4927;52.472;13.108;2023-11-18T05:43:19;4.30;99.90
9776;DHT22;4927;52.472;13.108;2023-11-18T05:44:21;4.30;99.90
9776;DHT22;4927;52.472;13.108;2023-11-18T05:45:23;4.30;99.90
9776;DHT22;4927;52.472;13.108;2023-11-18T05:46:29;4.30;99.90
9776;DHT22;4927;52.472;13.108;2023-11-18T05:47:31;4.30;99.90
9776;DHT22;4927;52.472;13.108;2023-11-18T05:48:34;4.30;99.90
9776;DHT22;4927;52.472;13.108;2023-11-18T05:49:37;4.20;99.90
9776;DHT22;4927;52.472;13.108;2023-11-18T05:50:39;4.30;99.90
9776;DHT22;4927;52.472;13.108;2023-11-18T05:51:42;4.30;99.90
9776;DHT22;4927;52.472;13.108;2023-11-18T05:52:45;4.20;99.90
9776;DHT22;4927;52.472;13.108;2023-11-18T05:53:47;4.20;99.90
9776;DHT22;4927;52.472;13.108;2023-11-18T05:54:49;4.20;99.90
9776;DHT22;4927;52.472;13.108;2023-11-18T05:55:52;4.20;99.90
9776;DHT22;4927;52.472;13.108;2023-11-18T05:56:54;4.20;99.90
9776;DHT22;4927;52.472;13.108;2023-11-18T05:57:56;4.20;99.90
9776;DHT22;4927;52.472;13.108;2023-11-18T05:58:58;4.20;99.90
9776;DHT22;4927;52.472;13.108;2023-11-18T06:00:00;4.10;99.90
9776;DHT22;4927;52.472;13.108;2023-11-18T06:01:02;4.10;99.90
9776;DHT22;4927;52.472;13.108;2023-11-18T06:02:04;4.10;99.90
9776;DHT22;4927;52.472;13.108;2023-11-18T06:03:06;4.10;99.90
9776;DHT22;4927;52.472;13.108;2023-11-18T06:04:08;4.10;99.90
9776;DHT22;4927;52.472;13.108;2023-11-18T06:05:10;4.10;99.90
9776;DHT22;4927;52.472;13.108;2023-11-18T06:06:13;4.10;99.90
9776;DHT22;4927;52.472;13.108;2023-11-18T06:07:14;4.10;99.90
9776;DHT22;4927;52.472;13.108;2023-11-18T06:08:18;4.10;99.90
9776;DHT22;4927;52.472;13.108;2023-11-18T06:09:20;4.10;99.90
9776;DHT22;4927;52.472;13.108;2023-11-18T06:10:22;4.10;99.90
9776;DHT22;4927;52.472;13.108;2023-11-18T06:11:25;4.10;99.90
9776;DHT22;4927;52.472;13.108;2023-11-18T06:12:28;4.10;99.90
9776;DHT22;4927;52.472;13.108;2023-11-18T06:13:31;4.10;99.90
9776;DHT22;4927;52.472;13.108;2023-11-18T06:14:32;4.10;99.90
9776;DHT22;4927;52.472;13.108;2023-11-18T06:15:35;4.10;99.90
9776;DHT22;4927;52.472;13.108;2023-11-18T06:16:37;4.10;99.90
9776;DHT22;4927;52.472;13.108;2023-11-18T06:17:39;4.10;99.90
9776;DHT22;4927;52.472;13.108;2023-11-18T06:18:43;4.20;99.90
9776;DHT22;4927;52.472;13.108;2023-11-18T06:19:45;4.10;99.90
9776;DHT22;4927;52.472;13.108;2023-11-18T06:20:48;4.20;99.90
9776;DHT22;4927;52.472;13.108;2023-11-18T06:21:49;4.20;99.90
9776;DHT22;4927;52.472;13.108;2023-11-18T06:22:51;4.20;99.90
9776;DHT22;4927;52.472;13.108;2023-11-18T06:23:53;4.20;99.90
9776;DHT22;4927;52.472;13.108;2023-11-18T06:24:57;4.20;99.90
9776;DHT22;4927;52.472;13.108;2023-11-18T06:26:00;4.20;99.90
9776;DHT22;4927;52.472;13.108;2023-11-18T06:27:03;4.20;99.90
9776;DHT22;4927;52.472;13.108;2023-11-18T06:28:05;4.20;99.90
9776;DHT22;4927;52.472;13.108;2023-11-18T06:29:07;4.20;99.90
9776;DHT22;4927;52.472;13.108;2023-11-18T06:30:11;4.20;99.90
9776;DHT22;4927;52.472;13.108;2023-11-18T06:31:14;4.30;99.90
9776;DHT22;4927;52.472;13.108;2023-11-18T06:32:17;4.20;99.90
9776;DHT22;4927;52.472;13.108;2023-11-18T06:33:19;4.20;99.90
9776;DHT22;4927;52.472;13.108;2023-11-18T06:34:21;4.20;99.90
9776;DHT22;4927;52.472;13.108;2023-11-18T06:35:24;4.30;99.90
9776;DHT22;4927;52.472;13.108;2023-11-18T06:36:26;4.30;99.90
9776;DHT22;4927;52.472;13.108;2023-11-18T06:37:32;4.30;99.90
9776;DHT22;4927;52.472;13.108;2023-11-18T06:38:34;4.30;99.90
9776;DHT22;4927;52.472;13.108;2023-11-18T06:39:40;4.30;99.90
9776;DHT22;4927;52.472;13.108;2023-11-18T06:40:38;4.30;99.90
9776;DHT22;4927;52.472;13.108;2023-11-18T06:41:40;4.30;99.90
9776;DHT22;4927;52.472;13.108;2023-11-18T06:42:42;4.30;99.90
9776;DHT22;4927;52.472;13.108;2023-11-18T06:43:46;4.30;99.90
9776;DHT22;4927;52.472;13.108;2023-11-18T06:45:03;4.30;99.90
9776;DHT22;4927;52.472;13.108;2023-11-18T06:46:07;4.30;99.90
9776;DHT22;4927;52.472;13.108;2023-11-18T06:47:08;4.30;99.90
9776;DHT22;4927;52.472;13.108;2023-11-18T06:48:10;4.30;99.90
9776;DHT22;4927;52.472;13.108;2023-11-18T06:49:12;4.30;99.90
9776;DHT22;4927;52.472;13.108;2023-11-18T06:50:15;4.40;99.90